createdAt,value
2018-09-30T00:00:35.039Z,1016.18
2018-09-30T00:01:42.662Z,1016.13
2018-09-30T00:02:35.045Z,1016.13
2018-09-30T00:03:35.004Z,1016.06
2018-09-30T00:04:34.996Z,1016.05
2018-09-30T00:05:34.991Z,1016.05
2018-09-30T00:06:35.002Z,1016.03
2018-09-30T00:07:34.963Z,1016.04
2018-09-30T00:08:34.967Z,1016.04
2018-09-30T00:09:34.983Z,1016.04
2018-09-30T00:10:34.928Z,1016.03
2018-09-30T00:11:34.918Z,1016.01
2018-09-30T00:12:34.909Z,1015.98
2018-09-30T00:13:34.943Z,1015.98
2018-09-30T00:14:34.908Z,1015.93
2018-09-30T00:15:34.903Z,1015.92
2018-09-30T00:16:34.861Z,1015.94
2018-09-30T00:17:34.930Z,1015.91
2018-09-30T00:18:34.905Z,1015.91
2018-09-30T00:19:44.547Z,1015.87
2018-09-30T00:20:34.939Z,1015.83
2018-09-30T00:21:34.992Z,1015.82
2018-09-30T00:22:34.820Z,1015.79
2018-09-30T00:23:34.805Z,1015.73
2018-09-30T00:24:34.856Z,1015.70
2018-09-30T00:25:34.783Z,1015.66
2018-09-30T00:26:34.834Z,1015.68
2018-09-30T00:27:34.832Z,1015.69
2018-09-30T00:28:34.775Z,1015.66
2018-09-30T00:29:34.720Z,1015.64
2018-09-30T00:30:34.703Z,1015.65
2018-09-30T00:31:34.709Z,1015.62
2018-09-30T00:32:34.693Z,1015.60
2018-09-30T00:33:34.669Z,1015.61
2018-09-30T00:34:34.800Z,1015.55
2018-09-30T00:35:34.647Z,1015.55
2018-09-30T00:36:34.637Z,1015.48
2018-09-30T00:37:34.671Z,1015.48
2018-09-30T00:38:34.612Z,1015.45
2018-09-30T00:39:34.782Z,1015.44
2018-09-30T00:40:34.594Z,1015.47
2018-09-30T00:41:34.582Z,1015.41
2018-09-30T00:42:34.578Z,1015.43
2018-09-30T00:43:34.583Z,1015.49
2018-09-30T00:44:34.544Z,1015.38
2018-09-30T00:45:34.560Z,1015.35
2018-09-30T00:46:34.524Z,1015.38
2018-09-30T00:47:34.677Z,1015.40
2018-09-30T00:48:34.553Z,1015.32
2018-09-30T00:49:34.567Z,1015.36
2018-09-30T00:50:34.598Z,1015.32
2018-09-30T00:51:34.615Z,1015.32
2018-09-30T00:52:34.462Z,1015.35
2018-09-30T00:53:34.450Z,1015.32
2018-09-30T00:54:34.438Z,1015.28
2018-09-30T00:55:34.547Z,1015.26
2018-09-30T00:56:34.416Z,1015.24
2018-09-30T00:57:34.527Z,1015.19
2018-09-30T00:58:34.393Z,1015.19
2018-09-30T00:59:34.512Z,1015.12
2018-09-30T01:00:34.399Z,1015.12
2018-09-30T01:01:34.377Z,1015.12
2018-09-30T01:02:34.348Z,1015.12
2018-09-30T01:03:34.335Z,1015.07
2018-09-30T01:04:34.329Z,1015.05
2018-09-30T01:05:34.358Z,1015.00
2018-09-30T01:06:34.334Z,1015.02
2018-09-30T01:07:34.305Z,1015.02
2018-09-30T01:08:34.277Z,1014.97
2018-09-30T01:09:34.307Z,1014.97
2018-09-30T01:10:34.255Z,1014.99
2018-09-30T01:11:34.245Z,1014.97
2018-09-30T01:12:34.252Z,1014.93
2018-09-30T01:13:34.224Z,1014.99
2018-09-30T01:14:34.325Z,1014.95
2018-09-30T01:16:48.384Z,1014.84
2018-09-30T01:17:48.373Z,1014.84
2018-09-30T01:18:48.294Z,1014.88
2018-09-30T01:19:48.250Z,1014.78
2018-09-30T01:20:48.308Z,1014.78
2018-09-30T01:21:48.233Z,1014.83
2018-09-30T01:22:48.280Z,1014.76
2018-09-30T01:23:48.245Z,1014.76
2018-09-30T01:24:48.324Z,1014.74
2018-09-30T01:25:48.189Z,1014.71
2018-09-30T01:26:48.167Z,1014.64
2018-09-30T01:27:48.227Z,1014.71
2018-09-30T01:28:48.150Z,1014.69
2018-09-30T01:29:48.181Z,1014.67
2018-09-30T01:30:48.265Z,1014.67
2018-09-30T01:31:48.113Z,1014.70
2018-09-30T01:32:48.098Z,1014.72
2018-09-30T01:33:48.110Z,1014.65
2018-09-30T01:34:48.105Z,1014.60
2018-09-30T01:35:48.067Z,1014.62
2018-09-30T01:36:48.060Z,1014.58
2018-09-30T01:37:48.345Z,1014.55
2018-09-30T01:38:48.220Z,1014.56
2018-09-30T01:39:48.085Z,1014.59
2018-09-30T01:40:48.119Z,1014.55
2018-09-30T01:41:48.007Z,1014.57
2018-09-30T01:42:47.993Z,1014.54
2018-09-30T01:43:47.979Z,1014.60
2018-09-30T01:44:47.973Z,1014.60
2018-09-30T01:45:47.961Z,1014.56
2018-09-30T01:46:47.964Z,1014.59
2018-09-30T01:47:47.943Z,1014.56
2018-09-30T01:48:47.926Z,1014.55
2018-09-30T01:49:47.919Z,1014.53
2018-09-30T01:50:47.904Z,1014.56
2018-09-30T01:51:59.494Z,1014.65
2018-09-30T01:52:47.893Z,1014.58
2018-09-30T01:53:47.872Z,1014.60
2018-09-30T01:54:47.882Z,1014.59
2018-09-30T01:55:47.851Z,1014.58
2018-09-30T01:56:47.838Z,1014.54
2018-09-30T01:57:47.868Z,1014.53
2018-09-30T01:58:47.911Z,1014.47
2018-09-30T01:59:47.852Z,1014.51
2018-09-30T02:00:47.799Z,1014.51
2018-09-30T02:01:47.785Z,1014.49
2018-09-30T02:02:47.812Z,1014.50
2018-09-30T02:03:47.783Z,1014.47
2018-09-30T02:04:47.797Z,1014.44
2018-09-30T02:05:47.754Z,1014.36
2018-09-30T02:06:47.870Z,1014.41
2018-09-30T02:07:47.726Z,1014.34
2018-09-30T02:08:55.805Z,1014.32
2018-09-30T02:09:47.695Z,1014.28
2018-09-30T02:10:47.687Z,1014.27
2018-09-30T02:11:47.691Z,1014.20
2018-09-30T02:12:47.841Z,1014.20
2018-09-30T02:13:47.703Z,1014.25
2018-09-30T02:14:47.646Z,1014.20
2018-09-30T02:15:47.630Z,1014.16
2018-09-30T02:16:47.658Z,1014.17
2018-09-30T02:17:47.607Z,1014.18
2018-09-30T02:18:47.598Z,1014.17
2018-09-30T02:19:47.635Z,1014.20
2018-09-30T02:20:47.580Z,1014.14
2018-09-30T02:21:47.568Z,1014.13
2018-09-30T02:22:47.557Z,1014.15
2018-09-30T02:23:47.544Z,1014.21
2018-09-30T02:24:47.566Z,1014.14
2018-09-30T02:25:47.695Z,1014.16
2018-09-30T02:26:47.515Z,1014.12
2018-09-30T02:27:47.503Z,1014.13
2018-09-30T02:28:47.488Z,1014.14
2018-09-30T02:29:47.483Z,1014.09
2018-09-30T02:30:47.612Z,1014.13
2018-09-30T02:31:47.603Z,1014.15
2018-09-30T02:32:47.487Z,1014.08
2018-09-30T02:33:47.439Z,1014.11
2018-09-30T02:34:47.504Z,1014.14
2018-09-30T02:35:47.415Z,1014.12
2018-09-30T02:36:47.517Z,1014.06
2018-09-30T02:37:47.435Z,1014.10
2018-09-30T02:38:47.513Z,1014.05
2018-09-30T02:39:56.870Z,1014.06
2018-09-30T02:40:47.388Z,1014.06
2018-09-30T02:41:47.350Z,1014.07
2018-09-30T02:42:47.368Z,1014.03
2018-09-30T02:43:47.394Z,1014.06
2018-09-30T02:44:47.333Z,1014.00
2018-09-30T02:45:47.365Z,1013.96
2018-09-30T02:46:47.294Z,1013.98
2018-09-30T02:47:47.349Z,1013.96
2018-09-30T02:48:47.272Z,1014.00
2018-09-30T02:49:47.284Z,1014.01
2018-09-30T02:50:47.266Z,1014.00
2018-09-30T02:51:47.340Z,1013.96
2018-09-30T02:52:47.227Z,1013.95
2018-09-30T02:53:47.301Z,1013.94
2018-09-30T02:54:47.205Z,1013.89
2018-09-30T02:55:47.217Z,1013.93
2018-09-30T02:56:47.182Z,1013.88
2018-09-30T02:57:47.170Z,1013.80
2018-09-30T02:58:47.163Z,1013.82
2018-09-30T02:59:47.284Z,1013.78
2018-09-30T03:00:47.171Z,1013.81
2018-09-30T03:01:47.147Z,1013.78
2018-09-30T03:02:47.179Z,1013.77
2018-09-30T03:03:47.108Z,1013.80
2018-09-30T03:04:47.094Z,1013.76
2018-09-30T03:05:47.089Z,1013.83
2018-09-30T03:06:47.098Z,1013.77
2018-09-30T03:07:47.085Z,1013.77
2018-09-30T03:08:47.186Z,1013.73
2018-09-30T03:09:47.043Z,1013.70
2018-09-30T03:10:47.030Z,1013.73
2018-09-30T03:11:47.025Z,1013.68
2018-09-30T03:12:47.011Z,1013.72
2018-09-30T03:13:47.146Z,1013.69
2018-09-30T03:14:47.070Z,1013.72
2018-09-30T03:15:46.978Z,1013.70
2018-09-30T03:16:46.990Z,1013.68
2018-09-30T03:17:47.120Z,1013.60
2018-09-30T03:18:46.942Z,1013.63
2018-09-30T03:19:46.953Z,1013.61
2018-09-30T03:20:46.920Z,1013.57
2018-09-30T03:21:46.935Z,1013.53
2018-09-30T03:22:46.895Z,1013.58
2018-09-30T03:23:46.886Z,1013.59
2018-09-30T03:24:46.891Z,1013.55
2018-09-30T03:25:46.875Z,1013.56
2018-09-30T03:26:46.854Z,1013.58
2018-09-30T03:27:46.843Z,1013.51
2018-09-30T03:28:46.832Z,1013.50
2018-09-30T03:29:46.842Z,1013.53
2018-09-30T03:30:47.017Z,1013.54
2018-09-30T03:31:46.801Z,1013.54
2018-09-30T03:32:46.789Z,1013.46
2018-09-30T03:33:46.810Z,1013.47
2018-09-30T03:34:46.768Z,1013.48
2018-09-30T03:35:46.754Z,1013.50
2018-09-30T03:36:46.781Z,1013.48
2018-09-30T03:37:46.734Z,1013.48
2018-09-30T03:38:46.723Z,1013.44
2018-09-30T03:39:46.823Z,1013.47
2018-09-30T03:40:46.766Z,1013.45
2018-09-30T03:41:46.695Z,1013.43
2018-09-30T03:42:46.698Z,1013.47
2018-09-30T03:43:46.697Z,1013.42
2018-09-30T03:44:46.657Z,1013.42
2018-09-30T03:45:46.833Z,1013.47
2018-09-30T03:46:46.637Z,1013.44
2018-09-30T03:47:46.624Z,1013.45
2018-09-30T03:48:46.651Z,1013.44
2018-09-30T03:49:46.600Z,1013.41
2018-09-30T03:50:46.593Z,1013.38
2018-09-30T03:51:46.714Z,1013.45
2018-09-30T03:52:46.660Z,1013.36
2018-09-30T03:53:46.558Z,1013.34
2018-09-30T03:54:46.559Z,1013.38
2018-09-30T03:55:46.569Z,1013.33
2018-09-30T03:56:46.543Z,1013.35
2018-09-30T03:57:46.616Z,1013.34
2018-09-30T03:58:46.569Z,1013.36
2018-09-30T03:59:46.558Z,1013.38
2018-09-30T04:00:46.514Z,1013.30
2018-09-30T04:01:46.487Z,1013.38
2018-09-30T04:02:46.479Z,1013.30
2018-09-30T04:03:46.453Z,1013.29
2018-09-30T04:04:46.446Z,1013.28
2018-09-30T04:05:46.494Z,1013.30
2018-09-30T04:06:46.514Z,1013.27
2018-09-30T04:07:46.454Z,1013.27
2018-09-30T04:08:46.393Z,1013.26
2018-09-30T04:09:46.509Z,1013.25
2018-09-30T04:10:46.369Z,1013.27
2018-09-30T04:11:46.360Z,1013.30
2018-09-30T04:12:46.402Z,1013.27
2018-09-30T04:13:46.348Z,1013.30
2018-09-30T04:14:46.326Z,1013.31
2018-09-30T04:15:46.431Z,1013.33
2018-09-30T04:16:46.310Z,1013.33
2018-09-30T04:17:46.293Z,1013.31
2018-09-30T04:18:46.482Z,1013.35
2018-09-30T04:19:46.271Z,1013.38
2018-09-30T04:20:46.261Z,1013.38
2018-09-30T04:21:46.253Z,1013.37
2018-09-30T04:22:46.313Z,1013.34
2018-09-30T04:23:46.265Z,1013.39
2018-09-30T04:24:46.321Z,1013.38
2018-09-30T04:25:46.213Z,1013.43
2018-09-30T04:26:46.269Z,1013.45
2018-09-30T04:27:46.184Z,1013.41
2018-09-30T04:28:46.173Z,1013.43
2018-09-30T04:29:46.173Z,1013.41
2018-09-30T04:30:46.169Z,1013.45
2018-09-30T04:31:46.143Z,1013.41
2018-09-30T04:32:46.147Z,1013.47
2018-09-30T04:33:46.217Z,1013.46
2018-09-30T04:34:46.109Z,1013.50
2018-09-30T04:35:46.098Z,1013.45
2018-09-30T04:36:46.115Z,1013.46
2018-09-30T04:37:46.074Z,1013.44
2018-09-30T04:38:46.064Z,1013.45
2018-09-30T04:39:46.075Z,1013.42
2018-09-30T04:40:46.043Z,1013.45
2018-09-30T04:41:46.031Z,1013.41
2018-09-30T04:42:46.145Z,1013.42
2018-09-30T04:43:46.012Z,1013.37
2018-09-30T04:44:45.998Z,1013.40
2018-09-30T04:45:46.021Z,1013.40
2018-09-30T04:46:45.977Z,1013.37
2018-09-30T04:47:46.077Z,1013.34
2018-09-30T04:48:45.992Z,1013.33
2018-09-30T04:49:45.963Z,1013.34
2018-09-30T04:50:45.933Z,1013.33
2018-09-30T04:51:45.947Z,1013.36
2018-09-30T04:52:45.982Z,1013.33
2018-09-30T04:53:46.006Z,1013.32
2018-09-30T04:54:45.892Z,1013.28
2018-09-30T04:55:45.892Z,1013.29
2018-09-30T04:56:45.932Z,1013.32
2018-09-30T04:57:45.972Z,1013.32
2018-09-30T04:58:45.847Z,1013.29
2018-09-30T04:59:45.893Z,1013.29
2018-09-30T05:00:45.821Z,1013.29
2018-09-30T05:01:45.828Z,1013.28
2018-09-30T05:02:45.804Z,1013.28
2018-09-30T05:03:45.786Z,1013.29
2018-09-30T05:04:45.780Z,1013.29
2018-09-30T05:05:45.801Z,1013.28
2018-09-30T05:06:45.754Z,1013.28
2018-09-30T05:07:45.767Z,1013.28
2018-09-30T05:08:45.735Z,1013.29
2018-09-30T05:09:45.719Z,1013.28
2018-09-30T05:10:45.721Z,1013.28
2018-09-30T05:11:45.699Z,1013.22
2018-09-30T05:12:45.687Z,1013.21
2018-09-30T05:13:45.804Z,1013.23
2018-09-30T05:14:45.756Z,1013.20
2018-09-30T05:15:45.661Z,1013.19
2018-09-30T05:16:45.644Z,1013.23
2018-09-30T05:17:45.632Z,1013.20
2018-09-30T05:18:45.623Z,1013.21
2018-09-30T05:19:45.633Z,1013.23
2018-09-30T05:20:45.599Z,1013.23
2018-09-30T05:21:45.604Z,1013.24
2018-09-30T05:22:45.737Z,1013.23
2018-09-30T05:23:45.567Z,1013.28
2018-09-30T05:24:45.686Z,1013.28
2018-09-30T05:25:45.646Z,1013.22
2018-09-30T05:26:45.536Z,1013.24
2018-09-30T05:27:45.524Z,1013.28
2018-09-30T05:28:45.540Z,1013.21
2018-09-30T05:29:45.515Z,1013.20
2018-09-30T05:30:45.650Z,1013.19
2018-09-30T05:31:45.495Z,1013.21
2018-09-30T05:32:45.469Z,1013.13
2018-09-30T05:33:45.457Z,1013.20
2018-09-30T05:34:45.541Z,1013.17
2018-09-30T05:35:45.455Z,1013.15
2018-09-30T05:36:45.569Z,1013.16
2018-09-30T05:37:45.477Z,1013.11
2018-09-30T05:38:45.432Z,1013.09
2018-09-30T05:39:45.398Z,1013.05
2018-09-30T05:40:45.471Z,1013.10
2018-09-30T05:41:45.374Z,1013.08
2018-09-30T05:42:45.379Z,1013.08
2018-09-30T05:43:45.419Z,1013.05
2018-09-30T05:44:45.339Z,1013.10
2018-09-30T05:45:45.331Z,1013.09
2018-09-30T05:46:45.325Z,1013.02
2018-09-30T05:47:45.405Z,1013.09
2018-09-30T05:48:45.311Z,1013.07
2018-09-30T05:49:45.287Z,1013.10
2018-09-30T05:50:45.423Z,1013.12
2018-09-30T05:51:45.264Z,1013.13
2018-09-30T05:52:45.254Z,1013.14
2018-09-30T05:53:45.261Z,1013.14
2018-09-30T05:54:45.227Z,1013.13
2018-09-30T05:55:53.196Z,1013.15
2018-09-30T05:56:45.259Z,1013.13
2018-09-30T05:57:45.223Z,1013.08
2018-09-30T05:58:45.221Z,1013.11
2018-09-30T05:59:45.270Z,1013.12
2018-09-30T06:00:45.218Z,1013.13
2018-09-30T06:01:45.259Z,1013.13
2018-09-30T06:02:45.219Z,1013.17
2018-09-30T06:03:45.126Z,1013.15
2018-09-30T06:04:45.156Z,1013.14
2018-09-30T06:05:45.181Z,1013.11
2018-09-30T06:06:45.136Z,1013.12
2018-09-30T06:07:45.096Z,1013.10
2018-09-30T06:08:45.084Z,1013.11
2018-09-30T06:09:45.068Z,1013.08
2018-09-30T06:10:45.054Z,1013.11
2018-09-30T06:11:45.052Z,1013.09
2018-09-30T06:12:52.614Z,1013.10
2018-09-30T06:13:45.091Z,1013.09
2018-09-30T06:14:45.111Z,1013.07
2018-09-30T06:15:45.029Z,1013.06
2018-09-30T06:16:45.005Z,1013.09
2018-09-30T06:17:44.982Z,1013.09
2018-09-30T06:18:44.962Z,1013.11
2018-09-30T06:19:44.963Z,1013.12
2018-09-30T06:20:44.938Z,1013.11
2018-09-30T06:21:44.951Z,1013.11
2018-09-30T06:22:44.935Z,1013.05
2018-09-30T06:23:44.922Z,1013.04
2018-09-30T06:24:44.896Z,1013.05
2018-09-30T06:25:44.886Z,1013.10
2018-09-30T06:26:44.878Z,1013.07
2018-09-30T06:27:44.979Z,1013.08
2018-09-30T06:28:44.866Z,1013.10
2018-09-30T06:29:44.840Z,1013.11
2018-09-30T06:30:44.870Z,1013.12
2018-09-30T06:31:44.942Z,1013.13
2018-09-30T06:32:44.894Z,1013.10
2018-09-30T06:33:44.798Z,1013.12
2018-09-30T06:34:44.786Z,1013.12
2018-09-30T06:35:44.798Z,1013.13
2018-09-30T06:36:44.785Z,1013.15
2018-09-30T06:37:44.802Z,1013.17
2018-09-30T06:38:44.825Z,1013.16
2018-09-30T06:39:44.738Z,1013.15
2018-09-30T06:40:44.719Z,1013.17
2018-09-30T06:41:44.723Z,1013.18
2018-09-30T06:42:44.841Z,1013.15
2018-09-30T06:43:44.710Z,1013.18
2018-09-30T06:44:44.678Z,1013.17
2018-09-30T06:45:44.665Z,1013.17
2018-09-30T06:46:44.686Z,1013.15
2018-09-30T06:47:44.645Z,1013.11
2018-09-30T06:48:44.656Z,1013.09
2018-09-30T06:49:52.792Z,1013.12
2018-09-30T06:50:44.753Z,1013.10
2018-09-30T06:51:45.032Z,1013.14
2018-09-30T06:52:44.630Z,1013.15
2018-09-30T06:53:44.685Z,1013.13
2018-09-30T06:54:44.670Z,1013.13
2018-09-30T06:55:44.593Z,1013.15
2018-09-30T06:56:44.623Z,1013.16
2018-09-30T06:57:44.535Z,1013.16
2018-09-30T06:58:44.525Z,1013.15
2018-09-30T06:59:44.534Z,1013.16
2018-09-30T07:00:44.513Z,1013.16
2018-09-30T07:01:44.489Z,1013.22
2018-09-30T07:02:44.514Z,1013.23
2018-09-30T07:03:44.490Z,1013.19
2018-09-30T07:04:44.638Z,1013.18
2018-09-30T07:05:44.468Z,1013.19
2018-09-30T07:06:44.434Z,1013.16
2018-09-30T07:07:44.464Z,1013.19
2018-09-30T07:08:44.523Z,1013.19
2018-09-30T07:09:44.404Z,1013.16
2018-09-30T07:10:44.473Z,1013.15
2018-09-30T07:11:44.397Z,1013.20
2018-09-30T07:12:44.588Z,1013.16
2018-09-30T07:13:44.404Z,1013.19
2018-09-30T07:14:44.345Z,1013.16
2018-09-30T07:15:44.488Z,1013.14
2018-09-30T07:16:44.341Z,1013.12
2018-09-30T07:17:44.325Z,1013.12
2018-09-30T07:18:44.341Z,1013.15
2018-09-30T07:19:44.290Z,1013.15
2018-09-30T07:20:44.285Z,1013.13
2018-09-30T07:21:44.318Z,1013.11
2018-09-30T07:22:44.316Z,1013.07
2018-09-30T07:23:44.247Z,1013.06
2018-09-30T07:24:44.237Z,1013.13
2018-09-30T07:25:44.227Z,1013.09
2018-09-30T07:26:44.229Z,1013.12
2018-09-30T07:27:44.236Z,1013.20
2018-09-30T07:28:53.241Z,1013.18
2018-09-30T07:29:44.195Z,1013.07
2018-09-30T07:30:44.212Z,1013.08
2018-09-30T07:31:44.207Z,1013.18
2018-09-30T07:32:44.209Z,1013.09
2018-09-30T07:33:44.329Z,1013.11
2018-09-30T07:34:44.176Z,1013.14
2018-09-30T07:35:44.116Z,1013.17
2018-09-30T07:36:44.138Z,1013.18
2018-09-30T07:37:44.243Z,1013.13
2018-09-30T07:38:44.236Z,1013.13
2018-09-30T07:39:44.079Z,1013.12
2018-09-30T07:40:44.080Z,1013.08
2018-09-30T07:41:44.055Z,1013.08
2018-09-30T07:42:44.079Z,1013.09
2018-09-30T07:43:44.030Z,1013.11
2018-09-30T07:44:44.198Z,1013.06
2018-09-30T07:45:44.035Z,1013.10
2018-09-30T07:46:44.023Z,1013.11
2018-09-30T07:47:43.989Z,1013.09
2018-09-30T07:48:52.046Z,1013.05
2018-09-30T07:49:44.008Z,1013.05
2018-09-30T07:50:43.954Z,1012.99
2018-09-30T07:51:43.939Z,1013.02
2018-09-30T07:52:44.400Z,1013.04
2018-09-30T07:53:44.320Z,1013.04
2018-09-30T07:54:44.041Z,1013.07
2018-09-30T07:55:44.063Z,1013.07
2018-09-30T07:56:44.181Z,1013.00
2018-09-30T07:57:43.892Z,1012.99
2018-09-30T07:58:44.195Z,1012.98
2018-09-30T07:59:43.853Z,1012.97
2018-09-30T08:00:43.974Z,1012.98
2018-09-30T08:01:43.830Z,1012.98
2018-09-30T08:02:43.822Z,1013.00
2018-09-30T08:03:43.936Z,1012.96
2018-09-30T08:04:43.796Z,1012.96
2018-09-30T08:05:43.785Z,1012.98
2018-09-30T08:06:43.824Z,1012.94
2018-09-30T08:07:43.797Z,1012.99
2018-09-30T08:08:43.751Z,1013.00
2018-09-30T08:09:53.464Z,1012.97
2018-09-30T08:10:43.770Z,1013.01
2018-09-30T08:11:43.751Z,1012.94
2018-09-30T08:12:44.214Z,1012.93
2018-09-30T08:13:43.780Z,1012.97
2018-09-30T08:14:43.829Z,1012.97
2018-09-30T08:15:43.689Z,1012.93
2018-09-30T08:16:43.754Z,1012.95
2018-09-30T08:17:43.652Z,1012.90
2018-09-30T08:18:43.643Z,1012.93
2018-09-30T08:19:43.678Z,1012.90
2018-09-30T08:20:43.621Z,1012.90
2018-09-30T08:21:43.629Z,1012.91
2018-09-30T08:22:43.595Z,1012.89
2018-09-30T08:23:43.587Z,1012.92
2018-09-30T08:24:43.773Z,1012.89
2018-09-30T08:25:43.568Z,1012.94
2018-09-30T08:26:43.592Z,1012.92
2018-09-30T08:27:43.613Z,1012.91
2018-09-30T08:28:51.494Z,1012.89
2018-09-30T08:29:43.615Z,1012.88
2018-09-30T08:30:43.589Z,1012.88
2018-09-30T08:31:43.502Z,1012.85
2018-09-30T08:32:43.527Z,1012.89
2018-09-30T08:33:43.605Z,1012.86
2018-09-30T08:34:43.849Z,1012.84
2018-09-30T08:35:43.475Z,1012.82
2018-09-30T08:36:43.539Z,1012.81
2018-09-30T08:37:43.541Z,1012.78
2018-09-30T08:38:43.424Z,1012.75
2018-09-30T08:39:43.602Z,1012.79
2018-09-30T08:40:43.400Z,1012.79
2018-09-30T08:41:43.387Z,1012.75
2018-09-30T08:42:43.417Z,1012.77
2018-09-30T08:43:43.478Z,1012.76
2018-09-30T08:44:43.376Z,1012.75
2018-09-30T08:45:43.367Z,1012.71
2018-09-30T08:46:43.381Z,1012.75
2018-09-30T08:47:51.461Z,1012.74
2018-09-30T08:48:43.334Z,1012.70
2018-09-30T08:49:43.309Z,1012.67
2018-09-30T08:50:43.691Z,1012.69
2018-09-30T08:51:43.362Z,1012.71
2018-09-30T08:52:43.290Z,1012.62
2018-09-30T08:53:43.276Z,1012.65
2018-09-30T08:54:43.247Z,1012.66
2018-09-30T08:55:43.289Z,1012.64
2018-09-30T08:56:43.297Z,1012.66
2018-09-30T08:57:43.253Z,1012.60
2018-09-30T08:58:43.212Z,1012.62
2018-09-30T08:59:43.192Z,1012.62
2018-09-30T09:00:43.183Z,1012.59
2018-09-30T09:01:43.236Z,1012.58
2018-09-30T09:02:43.182Z,1012.55
2018-09-30T09:03:43.143Z,1012.58
2018-09-30T09:04:43.136Z,1012.58
2018-09-30T09:05:43.126Z,1012.56
2018-09-30T09:06:43.119Z,1012.58
2018-09-30T09:07:50.972Z,1012.58
2018-09-30T09:08:43.169Z,1012.55
2018-09-30T09:09:43.921Z,1012.58
2018-09-30T09:10:43.397Z,1012.55
2018-09-30T09:11:43.211Z,1012.54
2018-09-30T09:12:43.049Z,1012.52
2018-09-30T09:13:43.205Z,1012.52
2018-09-30T09:14:43.130Z,1012.52
2018-09-30T09:15:43.018Z,1012.45
2018-09-30T09:16:43.023Z,1012.44
2018-09-30T09:17:43.048Z,1012.40
2018-09-30T09:18:42.986Z,1012.41
2018-09-30T09:19:42.969Z,1012.38
2018-09-30T09:20:43.076Z,1012.42
2018-09-30T09:21:42.946Z,1012.42
2018-09-30T09:22:43.028Z,1012.42
2018-09-30T09:23:43.058Z,1012.37
2018-09-30T09:24:42.924Z,1012.39
2018-09-30T09:25:42.901Z,1012.32
2018-09-30T09:26:50.642Z,1012.35
2018-09-30T09:27:42.930Z,1012.32
2018-09-30T09:28:43.003Z,1012.32
2018-09-30T09:29:42.912Z,1012.35
2018-09-30T09:30:42.881Z,1012.28
2018-09-30T09:31:42.900Z,1012.24
2018-09-30T09:32:42.860Z,1012.31
2018-09-30T09:33:42.812Z,1012.24
2018-09-30T09:34:42.824Z,1012.23
2018-09-30T09:35:42.843Z,1012.24
2018-09-30T09:36:42.854Z,1012.25
2018-09-30T09:37:42.772Z,1012.27
2018-09-30T09:38:42.764Z,1012.26
2018-09-30T09:39:51.952Z,1012.27
2018-09-30T09:40:42.787Z,1012.25
2018-09-30T09:41:42.905Z,1012.28
2018-09-30T09:42:42.771Z,1012.27
2018-09-30T09:43:42.717Z,1012.29
2018-09-30T09:44:42.696Z,1012.26
2018-09-30T09:45:42.733Z,1012.29
2018-09-30T09:46:42.671Z,1012.29
2018-09-30T09:47:42.704Z,1012.25
2018-09-30T09:48:42.647Z,1012.27
2018-09-30T09:49:42.638Z,1012.31
2018-09-30T09:50:42.759Z,1012.27
2018-09-30T09:51:42.640Z,1012.29
2018-09-30T09:52:42.694Z,1012.24
2018-09-30T09:53:42.601Z,1012.26
2018-09-30T09:54:42.581Z,1012.23
2018-09-30T09:55:42.621Z,1012.22
2018-09-30T09:56:42.560Z,1012.21
2018-09-30T09:57:42.569Z,1012.16
2018-09-30T09:58:42.573Z,1012.21
2018-09-30T09:59:42.528Z,1012.15
2018-09-30T10:00:42.515Z,1012.21
2018-09-30T10:01:42.522Z,1012.17
2018-09-30T10:02:54.839Z,1012.12
2018-09-30T10:03:42.528Z,1012.16
2018-09-30T10:04:42.474Z,1012.14
2018-09-30T10:05:42.515Z,1012.14
2018-09-30T10:06:42.491Z,1012.15
2018-09-30T10:07:42.490Z,1012.17
2018-09-30T10:08:42.543Z,1012.14
2018-09-30T10:09:42.458Z,1012.17
2018-09-30T10:10:42.404Z,1012.12
2018-09-30T10:11:42.433Z,1012.12
2018-09-30T10:12:42.384Z,1012.09
2018-09-30T10:13:42.371Z,1012.09
2018-09-30T10:14:42.396Z,1012.08
2018-09-30T10:15:42.348Z,1012.12
2018-09-30T10:16:42.339Z,1012.07
2018-09-30T10:17:42.429Z,1012.10
2018-09-30T10:18:42.318Z,1012.00
2018-09-30T10:19:42.305Z,1012.01
2018-09-30T10:20:42.345Z,1011.97
2018-09-30T10:21:51.395Z,1011.92
2018-09-30T10:22:42.275Z,1011.92
2018-09-30T10:23:42.263Z,1011.90
2018-09-30T10:24:42.276Z,1011.88
2018-09-30T10:25:42.310Z,1011.88
2018-09-30T10:26:42.280Z,1011.84
2018-09-30T10:27:42.289Z,1011.84
2018-09-30T10:28:42.310Z,1011.86
2018-09-30T10:29:42.195Z,1011.85
2018-09-30T10:30:42.215Z,1011.76
2018-09-30T10:31:42.175Z,1011.76
2018-09-30T10:32:42.178Z,1011.72
2018-09-30T10:33:42.294Z,1011.74
2018-09-30T10:34:42.140Z,1011.71
2018-09-30T10:35:42.149Z,1011.68
2018-09-30T10:36:42.150Z,1011.66
2018-09-30T10:37:42.157Z,1011.67
2018-09-30T10:38:42.275Z,1011.68
2018-09-30T10:39:42.083Z,1011.67
2018-09-30T10:40:42.232Z,1011.63
2018-09-30T10:41:50.242Z,1011.62
2018-09-30T10:42:42.147Z,1011.63
2018-09-30T10:43:42.088Z,1011.59
2018-09-30T10:44:42.078Z,1011.60
2018-09-30T10:45:42.056Z,1011.58
2018-09-30T10:46:42.046Z,1011.50
2018-09-30T10:47:41.994Z,1011.48
2018-09-30T10:48:42.246Z,1011.46
2018-09-30T10:49:42.036Z,1011.53
2018-09-30T10:50:42.116Z,1011.51
2018-09-30T10:51:41.952Z,1011.53
2018-09-30T10:52:41.970Z,1011.51
2018-09-30T10:53:41.927Z,1011.49
2018-09-30T10:54:41.947Z,1011.50
2018-09-30T10:55:41.911Z,1011.46
2018-09-30T10:56:41.960Z,1011.43
2018-09-30T10:57:41.924Z,1011.42
2018-09-30T10:58:41.871Z,1011.49
2018-09-30T10:59:41.863Z,1011.49
2018-09-30T11:00:50.617Z,1011.51
2018-09-30T11:01:42.092Z,1011.43
2018-09-30T11:02:41.892Z,1011.42
2018-09-30T11:03:42.060Z,1011.36
2018-09-30T11:04:41.829Z,1011.35
2018-09-30T11:05:41.819Z,1011.32
2018-09-30T11:06:41.822Z,1011.30
2018-09-30T11:07:42.066Z,1011.30
2018-09-30T11:08:41.833Z,1011.33
2018-09-30T11:09:41.956Z,1011.28
2018-09-30T11:10:41.739Z,1011.26
2018-09-30T11:11:41.769Z,1011.29
2018-09-30T11:12:41.717Z,1011.30
2018-09-30T11:13:41.812Z,1011.30
2018-09-30T11:14:41.717Z,1011.31
2018-09-30T11:15:41.681Z,1011.27
2018-09-30T11:16:41.717Z,1011.27
2018-09-30T11:17:41.660Z,1011.28
2018-09-30T11:18:41.651Z,1011.28
2018-09-30T11:19:51.001Z,1011.29
2018-09-30T11:20:41.657Z,1011.28
2018-09-30T11:21:41.795Z,1011.28
2018-09-30T11:22:41.654Z,1011.26
2018-09-30T11:23:41.677Z,1011.30
2018-09-30T11:24:41.612Z,1011.24
2018-09-30T11:25:41.591Z,1011.26
2018-09-30T11:26:41.598Z,1011.31
2018-09-30T11:27:41.549Z,1011.29
2018-09-30T11:28:41.539Z,1011.27
2018-09-30T11:29:41.628Z,1011.23
2018-09-30T11:30:41.516Z,1011.22
2018-09-30T11:31:41.585Z,1011.24
2018-09-30T11:32:41.520Z,1011.23
2018-09-30T11:33:41.485Z,1011.21
2018-09-30T11:34:41.474Z,1011.20
2018-09-30T11:35:41.504Z,1011.19
2018-09-30T11:36:41.495Z,1011.19
2018-09-30T11:37:41.506Z,1011.18
2018-09-30T11:38:49.438Z,1011.18
2018-09-30T11:39:41.417Z,1011.16
2018-09-30T11:40:41.553Z,1011.15
2018-09-30T11:41:41.486Z,1011.14
2018-09-30T11:42:41.416Z,1011.12
2018-09-30T11:43:41.406Z,1011.13
2018-09-30T11:44:41.503Z,1011.09
2018-09-30T11:45:41.435Z,1011.10
2018-09-30T11:46:41.339Z,1011.12
2018-09-30T11:47:41.357Z,1011.11
2018-09-30T11:48:41.317Z,1011.08
2018-09-30T11:49:41.328Z,1011.09
2018-09-30T11:50:41.324Z,1011.07
2018-09-30T11:51:41.283Z,1011.08
2018-09-30T11:52:41.322Z,1011.09
2018-09-30T11:53:41.260Z,1010.99
2018-09-30T11:54:41.250Z,1011.00
2018-09-30T11:55:41.264Z,1010.96
2018-09-30T11:56:41.252Z,1010.95
2018-09-30T11:57:41.225Z,1010.91
2018-09-30T11:58:41.202Z,1010.90
2018-09-30T11:59:41.336Z,1010.92
2018-09-30T12:00:41.183Z,1010.91
2018-09-30T12:01:41.222Z,1010.86
2018-09-30T12:02:41.159Z,1010.84
2018-09-30T12:03:41.193Z,1010.83
2018-09-30T12:04:41.144Z,1010.82
2018-09-30T12:05:41.126Z,1010.72
2018-09-30T12:06:41.141Z,1010.75